sensor_id;sensor_type;location;lat;lon;timestamp;pressure;altitude;pressure_sealevel;temperature;humidity
67397;BME280;57728;50.448;18.824;2023-09-19T00:00:29;97207.47;;;21.81;57.20
67397;BME280;57728;50.448;18.824;2023-09-19T00:02:31;97208.63;;;21.80;57.24
67397;BME280;57728;50.448;18.824;2023-09-19T00:04:33;97203.91;;;21.81;57.37
67397;BME280;57728;50.448;18.824;2023-09-19T00:06:38;97211.41;;;21.80;57.33
67397;BME280;57728;50.448;18.824;2023-09-19T00:08:40;97128.69;;;21.21;57.29
67397;BME280;57728;50.448;18.824;2023-09-19T00:10:44;97175.53;;;21.58;57.26
67397;BME280;57728;50.448;18.824;2023-09-19T00:12:45;97205.88;;;21.80;57.21
67397;BME280;57728;50.448;18.824;2023-09-19T00:14:47;97139.00;;;21.38;57.65
67397;BME280;57728;50.448;18.824;2023-09-19T00:16:48;97164.72;;;21.47;57.66
67397;BME280;57728;50.448;18.824;2023-09-19T00:18:50;97211.72;;;21.79;57.30
67397;BME280;57728;50.448;18.824;2023-09-19T00:20:52;97090.22;;;21.02;57.48
67397;BME280;57728;50.448;18.824;2023-09-19T00:22:53;97155.59;;;21.47;57.32
67397;BME280;57728;50.448;18.824;2023-09-19T00:24:55;97159.38;;;21.51;57.75
67397;BME280;57728;50.448;18.824;2023-09-19T00:26:57;97133.59;;;21.42;57.40
67397;BME280;57728;50.448;18.824;2023-09-19T00:29:00;97198.03;;;21.83;57.50
67397;BME280;57728;50.448;18.824;2023-09-19T00:31:09;97164.31;;;21.72;57.48
67397;BME280;57728;50.448;18.824;2023-09-19T00:33:12;97136.59;;;21.54;57.23
67397;BME280;57728;50.448;18.824;2023-09-19T00:35:16;97120.91;;;21.41;57.30
67397;BME280;57728;50.448;18.824;2023-09-19T00:37:18;97140.00;;;21.60;57.23
67397;BME280;57728;50.448;18.824;2023-09-19T00:39:20;97086.72;;;21.28;56.89
67397;BME280;57728;50.448;18.824;2023-09-19T00:41:21;97120.94;;;21.58;56.87
67397;BME280;57728;50.448;18.824;2023-09-19T00:43:22;97186.47;;;21.89;57.06
67397;BME280;57728;50.448;18.824;2023-09-19T00:45:25;97076.44;;;21.28;57.05
67397;BME280;57728;50.448;18.824;2023-09-19T00:47:28;97188.09;;;21.90;56.96
67397;BME280;57728;50.448;18.824;2023-09-19T00:49:30;97061.78;;;21.19;56.95
67397;BME280;57728;50.448;18.824;2023-09-19T00:51:34;97171.47;;;21.90;57.23
67397;BME280;57728;50.448;18.824;2023-09-19T00:53:38;97100.75;;;21.49;57.00
67397;BME280;57728;50.448;18.824;2023-09-19T00:55:40;97161.53;;;21.89;57.26
67397;BME280;57728;50.448;18.824;2023-09-19T00:57:44;97166.28;;;21.89;57.03
67397;BME280;57728;50.448;18.824;2023-09-19T00:59:50;97157.13;;;21.88;57.28
67397;BME280;57728;50.448;18.824;2023-09-19T01:01:56;97160.72;;;21.89;56.83
67397;BME280;57728;50.448;18.824;2023-09-19T01:03:58;97118.50;;;21.57;56.96
67397;BME280;57728;50.448;18.824;2023-09-19T01:06:00;97155.50;;;21.87;57.02
67397;BME280;57728;50.448;18.824;2023-09-19T01:08:03;97145.56;;;21.86;57.07
67397;BME280;57728;50.448;18.824;2023-09-19T01:10:17;97144.44;;;21.87;57.10
67397;BME280;57728;50.448;18.824;2023-09-19T01:17:31;97004.78;;;20.92;57.00
67397;BME280;57728;50.448;18.824;2023-09-19T01:19:51;97141.50;;;21.75;57.15
67397;BME280;57728;50.448;18.824;2023-09-19T01:25:07;97078.56;;;21.32;57.47
67397;BME280;57728;50.448;18.824;2023-09-19T01:29:42;97102.34;;;21.50;57.43
67397;BME280;57728;50.448;18.824;2023-09-19T01:31:47;97034.75;;;21.07;57.57
67397;BME280;57728;50.448;18.824;2023-09-19T01:34:01;97118.84;;;21.64;57.89
67397;BME280;57728;50.448;18.824;2023-09-19T01:36:05;97118.03;;;21.63;57.75
67397;BME280;57728;50.448;18.824;2023-09-19T01:38:06;97025.13;;;21.05;57.64
67397;BME280;57728;50.448;18.824;2023-09-19T01:40:18;97002.53;;;20.94;57.82
67397;BME280;57728;50.448;18.824;2023-09-19T01:42:40;97118.34;;;21.71;57.93
67397;BME280;57728;50.448;18.824;2023-09-19T01:44:59;97059.03;;;21.45;57.57
67397;BME280;57728;50.448;18.824;2023-09-19T01:47:43;97110.84;;;21.80;57.78
67397;BME280;57728;50.448;18.824;2023-09-19T01:50:24;97111.81;;;21.84;57.91
67397;BME280;57728;50.448;18.824;2023-09-19T01:52:40;97054.97;;;21.52;57.93
67397;BME280;57728;50.448;18.824;2023-09-19T01:54:52;97042.09;;;21.47;57.67
67397;BME280;57728;50.448;18.824;2023-09-19T01:57:34;97094.72;;;21.82;57.49
67397;BME280;57728;50.448;18.824;2023-09-19T01:59:54;97017.19;;;21.38;57.39
67397;BME280;57728;50.448;18.824;2023-09-19T02:02:15;97088.53;;;21.85;57.53
67397;BME280;57728;50.448;18.824;2023-09-19T02:04:18;97090.97;;;21.87;57.79
67397;BME280;57728;50.448;18.824;2023-09-19T02:06:20;97094.38;;;21.92;57.72
67397;BME280;57728;50.448;18.824;2023-09-19T02:08:23;97091.59;;;21.92;57.50
67397;BME280;57728;50.448;18.824;2023-09-19T02:10:27;96993.41;;;21.28;57.35
67397;BME280;57728;50.448;18.824;2023-09-19T02:12:29;97087.19;;;21.91;57.30
67397;BME280;57728;50.448;18.824;2023-09-19T02:14:31;97114.72;;;22.05;57.48
67397;BME280;57728;50.448;18.824;2023-09-19T02:16:32;97112.47;;;22.07;57.52
67397;BME280;57728;50.448;18.824;2023-09-19T02:18:34;97066.72;;;21.75;57.65
67397;BME280;57728;50.448;18.824;2023-09-19T02:20:35;97105.97;;;21.94;57.60
67397;BME280;57728;50.448;18.824;2023-09-19T02:22:38;97114.72;;;22.05;57.65
67397;BME280;57728;50.448;18.824;2023-09-19T02:24:40;97077.94;;;21.78;57.76
67397;BME280;57728;50.448;18.824;2023-09-19T02:26:41;97121.75;;;22.03;57.64
67397;BME280;57728;50.448;18.824;2023-09-19T02:28:43;97116.84;;;21.99;57.77
67397;BME280;57728;50.448;18.824;2023-09-19T02:30:48;97111.16;;;21.96;57.69
67397;BME280;57728;50.448;18.824;2023-09-19T02:32:51;96997.97;;;21.24;57.88
67397;BME280;57728;50.448;18.824;2023-09-19T02:34:52;97109.53;;;21.95;57.88
67397;BME280;57728;50.448;18.824;2023-09-19T02:36:55;96994.69;;;21.13;57.96
67397;BME280;57728;50.448;18.824;2023-09-19T02:38:57;97117.03;;;21.94;58.22
67397;BME280;57728;50.448;18.824;2023-09-19T02:40:59;97111.50;;;21.94;58.00
67397;BME280;57728;50.448;18.824;2023-09-19T02:43:01;97125.03;;;21.96;58.21
67397;BME280;57728;50.448;18.824;2023-09-19T02:45:02;97081.53;;;21.79;57.89
67397;BME280;57728;50.448;18.824;2023-09-19T02:47:07;97108.06;;;21.97;58.17
67397;BME280;57728;50.448;18.824;2023-09-19T02:49:08;97108.88;;;21.98;58.27
67397;BME280;57728;50.448;18.824;2023-09-19T02:51:09;97109.72;;;21.98;58.19
67397;BME280;57728;50.448;18.824;2023-09-19T02:53:11;96905.69;;;20.68;58.17
67397;BME280;57728;50.448;18.824;2023-09-19T02:55:17;97109.19;;;21.96;58.48
67397;BME280;57728;50.448;18.824;2023-09-19T02:57:20;97066.19;;;21.73;58.05
67397;BME280;57728;50.448;18.824;2023-09-19T02:59:21;96995.84;;;21.21;58.16
67397;BME280;57728;50.448;18.824;2023-09-19T03:01:23;97113.63;;;21.97;58.31
67397;BME280;57728;50.448;18.824;2023-09-19T03:03:24;97057.91;;;21.64;58.53
67397;BME280;57728;50.448;18.824;2023-09-19T03:05:26;97002.38;;;21.25;58.82
67397;BME280;57728;50.448;18.824;2023-09-19T03:07:28;97074.50;;;21.73;58.99
67397;BME280;57728;50.448;18.824;2023-09-19T03:09:30;97101.06;;;21.91;58.67
67397;BME280;57728;50.448;18.824;2023-09-19T03:11:31;97103.81;;;21.91;58.89
67397;BME280;57728;50.448;18.824;2023-09-19T03:13:34;97023.19;;;21.40;59.22
67397;BME280;57728;50.448;18.824;2023-09-19T03:15:41;97016.19;;;21.34;59.00
67397;BME280;57728;50.448;18.824;2023-09-19T03:17:49;97081.84;;;21.77;58.92
67397;BME280;57728;50.448;18.824;2023-09-19T03:19:55;97021.25;;;21.41;58.96
67397;BME280;57728;50.448;18.824;2023-09-19T03:21:58;97105.97;;;21.94;59.15
67397;BME280;57728;50.448;18.824;2023-09-19T03:23:59;97063.13;;;21.66;59.59
67397;BME280;57728;50.448;18.824;2023-09-19T03:26:01;97070.78;;;21.77;59.56
67397;BME280;57728;50.448;18.824;2023-09-19T03:28:03;96969.78;;;21.13;59.23
67397;BME280;57728;50.448;18.824;2023-09-19T03:30:08;97058.41;;;21.75;59.68
67397;BME280;57728;50.448;18.824;2023-09-19T03:32:11;97077.09;;;21.87;59.63
67397;BME280;57728;50.448;18.824;2023-09-19T03:34:12;97003.81;;;21.40;59.69
67397;BME280;57728;50.448;18.824;2023-09-19T03:36:13;96944.75;;;21.10;59.62
67397;BME280;57728;50.448;18.824;2023-09-19T03:38:15;97051.53;;;21.81;59.68
67397;BME280;57728;50.448;18.824;2023-09-19T03:40:17;97093.19;;;22.11;59.84
67397;BME280;57728;50.448;18.824;2023-09-19T03:42:21;96962.97;;;21.28;59.53
67397;BME280;57728;50.448;18.824;2023-09-19T03:44:27;96898.53;;;20.84;59.42
67397;BME280;57728;50.448;18.824;2023-09-19T03:46:29;97101.50;;;22.11;59.54
67397;BME280;57728;50.448;18.824;2023-09-19T03:48:31;97098.75;;;22.11;59.87
67397;BME280;57728;50.448;18.824;2023-09-19T03:50:33;97098.75;;;22.11;59.77
67397;BME280;57728;50.448;18.824;2023-09-19T03:52:34;97101.03;;;22.09;59.62
67397;BME280;57728;50.448;18.824;2023-09-19T03:54:35;97097.78;;;22.07;59.83
67397;BME280;57728;50.448;18.824;2023-09-19T03:56:37;96995.19;;;21.42;59.75
67397;BME280;57728;50.448;18.824;2023-09-19T03:58:38;97070.75;;;21.86;60.03
67397;BME280;57728;50.448;18.824;2023-09-19T04:00:40;97092.56;;;21.96;60.44
67397;BME280;57728;50.448;18.824;2023-09-19T04:02:42;97045.19;;;21.63;60.41
67397;BME280;57728;50.448;18.824;2023-09-19T04:04:43;97083.47;;;21.87;61.06
67397;BME280;57728;50.448;18.824;2023-09-19T04:06:44;97082.81;;;21.81;60.89
67397;BME280;57728;50.448;18.824;2023-09-19T04:08:46;97004.94;;;21.30;61.39
67397;BME280;57728;50.448;18.824;2023-09-19T04:10:48;97078.44;;;21.72;61.80
67397;BME280;57728;50.448;18.824;2023-09-19T04:12:57;97034.59;;;21.39;61.98
67397;BME280;57728;50.448;18.824;2023-09-19T04:14:59;97083.50;;;21.61;62.22
67397;BME280;57728;50.448;18.824;2023-09-19T04:17:00;97082.34;;;21.53;62.65
67397;BME280;57728;50.448;18.824;2023-09-19T04:19:01;97082.81;;;21.46;62.94
67397;BME280;57728;50.448;18.824;2023-09-19T04:21:05;97089.16;;;21.38;63.33
67397;BME280;57728;50.448;18.824;2023-09-19T04:23:06;96925.59;;;20.30;63.49
67397;BME280;57728;50.448;18.824;2023-09-19T04:25:09;97093.72;;;21.25;64.13
67397;BME280;57728;50.448;18.824;2023-09-19T04:27:11;97094.69;;;21.21;64.17
67397;BME280;57728;50.448;18.824;2023-09-19T04:29:15;97093.69;;;21.17;64.66
67397;BME280;57728;50.448;18.824;2023-09-19T04:31:16;97049.19;;;20.87;64.47
67397;BME280;57728;50.448;18.824;2023-09-19T04:33:20;96973.75;;;20.37;64.62
67397;BME280;57728;50.448;18.824;2023-09-19T04:35:21;97028.34;;;20.72;64.61
67397;BME280;57728;50.448;18.824;2023-09-19T04:37:22;97054.56;;;20.83;65.10
67397;BME280;57728;50.448;18.824;2023-09-19T04:39:24;96977.97;;;20.35;65.02
67397;BME280;57728;50.448;18.824;2023-09-19T04:41:26;96946.66;;;19.99;64.59
67397;BME280;57728;50.448;18.824;2023-09-19T04:43:29;97018.50;;;20.48;65.14
67397;BME280;57728;50.448;18.824;2023-09-19T04:45:31;97035.16;;;20.66;64.88
67397;BME280;57728;50.448;18.824;2023-09-19T04:47:33;97090.22;;;20.93;64.89
67397;BME280;57728;50.448;18.824;2023-09-19T04:49:34;97099.66;;;20.92;65.14
67397;BME280;57728;50.448;18.824;2023-09-19T04:51:37;97054.13;;;20.58;65.28
67397;BME280;57728;50.448;18.824;2023-09-19T04:53:38;97023.63;;;20.23;65.14
67397;BME280;57728;50.448;18.824;2023-09-19T04:55:39;96922.69;;;19.54;65.38
67397;BME280;57728;50.448;18.824;2023-09-19T04:57:41;97089.41;;;20.53;65.98
67397;BME280;57728;50.448;18.824;2023-09-19T04:59:42;97016.38;;;20.05;66.41
67397;BME280;57728;50.448;18.824;2023-09-19T05:01:43;97003.16;;;19.93;66.42
67397;BME280;57728;50.448;18.824;2023-09-19T05:03:45;97032.69;;;20.15;66.85
67397;BME280;57728;50.448;18.824;2023-09-19T05:05:46;97081.25;;;20.48;67.32
67397;BME280;57728;50.448;18.824;2023-09-19T05:07:47;97120.34;;;20.64;67.02
67397;BME280;57728;50.448;18.824;2023-09-19T05:09:49;96979.31;;;19.74;67.30
67397;BME280;57728;50.448;18.824;2023-09-19T05:11:50;97060.88;;;20.35;67.30
67397;BME280;57728;50.448;18.824;2023-09-19T05:13:52;97114.19;;;20.67;67.51
67397;BME280;57728;50.448;18.824;2023-09-19T05:16:00;97074.06;;;20.38;67.48
67397;BME280;57728;50.448;18.824;2023-09-19T05:18:04;97125.25;;;20.67;67.95
67397;BME280;57728;50.448;18.824;2023-09-19T05:20:07;97133.53;;;20.67;67.97
67397;BME280;57728;50.448;18.824;2023-09-19T05:22:18;97144.31;;;20.68;67.83
67397;BME280;57728;50.448;18.824;2023-09-19T05:24:19;97090.00;;;20.41;67.99
67397;BME280;57728;50.448;18.824;2023-09-19T05:26:21;97090.38;;;20.48;68.08
67397;BME280;57728;50.448;18.824;2023-09-19T05:28:23;97147.28;;;20.81;67.93
67397;BME280;57728;50.448;18.824;2023-09-19T05:30:27;97151.38;;;20.83;68.01
67397;BME280;57728;50.448;18.824;2023-09-19T05:32:29;97156.25;;;20.86;68.05
67397;BME280;57728;50.448;18.824;2023-09-19T05:34:31;97052.19;;;20.19;67.73
67397;BME280;57728;50.448;18.824;2023-09-19T05:36:32;97143.22;;;20.78;67.59
67397;BME280;57728;50.448;18.824;2023-09-19T05:38:34;97165.88;;;20.89;67.81
67397;BME280;57728;50.448;18.824;2023-09-19T05:40:36;97167.31;;;20.86;67.79
67397;BME280;57728;50.448;18.824;2023-09-19T05:42:39;97119.53;;;20.54;67.86
67397;BME280;57728;50.448;18.824;2023-09-19T05:44:42;97149.91;;;20.77;68.26
67397;BME280;57728;50.448;18.824;2023-09-19T05:46:43;97170.22;;;20.81;68.43
67397;BME280;57728;50.448;18.824;2023-09-19T05:48:46;97150.69;;;20.69;68.49
67397;BME280;57728;50.448;18.824;2023-09-19T05:50:48;97134.47;;;20.53;68.23
67397;BME280;57728;50.448;18.824;2023-09-19T05:52:53;97180.94;;;20.74;68.68
67397;BME280;57728;50.448;18.824;2023-09-19T05:54:56;97145.34;;;20.50;68.40
67397;BME280;57728;50.448;18.824;2023-09-19T05:56:58;97182.56;;;20.75;68.41
67397;BME280;57728;50.448;18.824;2023-09-19T05:59:00;97054.13;;;19.87;68.87
67397;BME280;57728;50.448;18.824;2023-09-19T06:01:01;97179.94;;;20.70;69.04
67397;BME280;57728;50.448;18.824;2023-09-19T06:03:02;97182.69;;;20.70;69.24
67397;BME280;57728;50.448;18.824;2023-09-19T06:05:06;97091.66;;;20.10;68.93
67397;BME280;57728;50.448;18.824;2023-09-19T06:07:07;97179.44;;;20.68;68.97
67397;BME280;57728;50.448;18.824;2023-09-19T06:09:08;97167.13;;;20.51;69.54
67397;BME280;57728;50.448;18.824;2023-09-19T06:11:10;97184.19;;;20.67;69.48
67397;BME280;57728;50.448;18.824;2023-09-19T06:13:12;97153.09;;;20.39;69.59
67397;BME280;57728;50.448;18.824;2023-09-19T06:15:14;97108.59;;;20.18;69.70
67397;BME280;57728;50.448;18.824;2023-09-19T06:17:17;97143.34;;;20.41;69.57
67397;BME280;57728;50.448;18.824;2023-09-19T06:19:20;97092.22;;;19.99;69.70
67397;BME280;57728;50.448;18.824;2023-09-19T06:21:23;97179.19;;;20.55;70.10
67397;BME280;57728;50.448;18.824;2023-09-19T06:23:25;97210.88;;;20.72;69.84
67397;BME280;57728;50.448;18.824;2023-09-19T06:25:29;97100.50;;;19.99;69.73
67397;BME280;57728;50.448;18.824;2023-09-19T06:27:30;97192.53;;;20.53;69.91
67397;BME280;57728;50.448;18.824;2023-09-19T06:29:32;97155.88;;;20.39;70.19
67397;BME280;57728;50.448;18.824;2023-09-19T06:31:34;96981.28;;;19.29;70.12
67397;BME280;57728;50.448;18.824;2023-09-19T06:33:37;97217.41;;;20.76;69.92
67397;BME280;57728;50.448;18.824;2023-09-19T06:35:41;97172.66;;;20.51;70.23
67397;BME280;57728;50.448;18.824;2023-09-19T06:37:47;97164.88;;;20.53;70.22
67397;BME280;57728;50.448;18.824;2023-09-19T06:39:48;97129.44;;;20.24;70.55
67397;BME280;57728;50.448;18.824;2023-09-19T06:41:52;97204.56;;;20.80;70.27
67397;BME280;57728;50.448;18.824;2023-09-19T06:43:56;97213.34;;;20.82;70.18
67397;BME280;57728;50.448;18.824;2023-09-19T06:45:58;97155.13;;;20.56;70.45
67397;BME280;57728;50.448;18.824;2023-09-19T06:48:01;97144.06;;;20.56;70.47
67397;BME280;57728;50.448;18.824;2023-09-19T06:50:04;97238.91;;;21.19;70.26
67397;BME280;57728;50.448;18.824;2023-09-19T06:52:06;97204.16;;;20.95;69.99
67397;BME280;57728;50.448;18.824;2023-09-19T06:54:08;97264.66;;;21.20;70.35
67397;BME280;57728;50.448;18.824;2023-09-19T06:56:09;97242.00;;;21.18;69.99
67397;BME280;57728;50.448;18.824;2023-09-19T06:58:11;97260.06;;;21.15;69.93
67397;BME280;57728;50.448;18.824;2023-09-19T07:00:15;97162.13;;;20.53;69.89
67397;BME280;57728;50.448;18.824;2023-09-19T07:02:19;97208.94;;;20.81;70.20
67397;BME280;57728;50.448;18.824;2023-09-19T07:04:24;97213.03;;;20.84;70.21
67397;BME280;57728;50.448;18.824;2023-09-19T07:06:26;97141.84;;;20.35;70.16
67397;BME280;57728;50.448;18.824;2023-09-19T07:08:27;97209.91;;;20.76;70.21
67397;BME280;57728;50.448;18.824;2023-09-19T07:10:29;97221.28;;;20.75;70.46
67397;BME280;57728;50.448;18.824;2023-09-19T07:12:32;97267.16;;;20.99;70.25
67397;BME280;57728;50.448;18.824;2023-09-19T07:14:36;97260.63;;;20.94;70.63
67397;BME280;57728;50.448;18.824;2023-09-19T07:16:40;97159.47;;;20.17;70.69
67397;BME280;57728;50.448;18.824;2023-09-19T07:18:46;97219.41;;;20.61;70.87
67397;BME280;57728;50.448;18.824;2023-09-19T07:20:47;97125.56;;;20.02;70.63
67397;BME280;57728;50.448;18.824;2023-09-19T07:22:50;97278.19;;;20.90;70.97
67397;BME280;57728;50.448;18.824;2023-09-19T07:24:52;97272.31;;;20.91;70.89
67397;BME280;57728;50.448;18.824;2023-09-19T07:26:54;97273.66;;;20.94;70.82
67397;BME280;57728;50.448;18.824;2023-09-19T07:28:55;97191.59;;;20.35;70.70
67397;BME280;57728;50.448;18.824;2023-09-19T07:31:02;97260.22;;;20.78;70.42
67397;BME280;57728;50.448;18.824;2023-09-19T07:33:05;97282.44;;;20.96;70.47
67397;BME280;57728;50.448;18.824;2023-09-19T07:35:07;97291.72;;;21.00;70.61
67397;BME280;57728;50.448;18.824;2023-09-19T07:37:09;97200.47;;;20.46;70.38
67397;BME280;57728;50.448;18.824;2023-09-19T07:39:10;97299.91;;;21.05;70.38
67397;BME280;57728;50.448;18.824;2023-09-19T07:41:11;97194.41;;;20.44;70.29
67397;BME280;57728;50.448;18.824;2023-09-19T07:43:13;97216.44;;;20.58;70.33
67397;BME280;57728;50.448;18.824;2023-09-19T07:45:15;97314.09;;;21.12;70.62
67397;BME280;57728;50.448;18.824;2023-09-19T07:47:17;97297.13;;;21.05;70.83
67397;BME280;57728;50.448;18.824;2023-09-19T07:49:19;97330.22;;;21.19;70.67
67397;BME280;57728;50.448;18.824;2023-09-19T07:51:20;97323.91;;;21.19;70.56
67397;BME280;57728;50.448;18.824;2023-09-19T07:53:21;97328.63;;;21.18;71.17
67397;BME280;57728;50.448;18.824;2023-09-19T07:55:24;97211.69;;;20.50;70.87
67397;BME280;57728;50.448;18.824;2023-09-19T07:57:26;97217.84;;;20.47;71.18
67397;BME280;57728;50.448;18.824;2023-09-19T07:59:27;97283.50;;;20.86;71.67
67397;BME280;57728;50.448;18.824;2023-09-19T08:01:29;97314.19;;;20.99;71.60
67397;BME280;57728;50.448;18.824;2023-09-19T08:03:31;97236.50;;;20.41;72.09
67397;BME280;57728;50.448;18.824;2023-09-19T08:05:32;97353.41;;;21.01;72.11
67397;BME280;57728;50.448;18.824;2023-09-19T08:07:40;97216.78;;;20.11;72.23
67397;BME280;57728;50.448;18.824;2023-09-19T08:09:42;97343.38;;;20.82;72.60
67397;BME280;57728;50.448;18.824;2023-09-19T08:11:47;97259.09;;;20.20;72.90
67397;BME280;57728;50.448;18.824;2023-09-19T08:13:49;97353.25;;;20.74;73.01
67397;BME280;57728;50.448;18.824;2023-09-19T08:15:51;97358.78;;;20.74;73.12
67397;BME280;57728;50.448;18.824;2023-09-19T08:17:53;97317.44;;;20.55;72.95
67397;BME280;57728;50.448;18.824;2023-09-19T08:19:55;97369.91;;;20.83;72.92
67397;BME280;57728;50.448;18.824;2023-09-19T08:22:00;97341.97;;;20.71;73.14
67397;BME280;57728;50.448;18.824;2023-09-19T08:24:02;97359.00;;;20.87;72.85
67397;BME280;57728;50.448;18.824;2023-09-19T08:26:05;97363.72;;;20.86;72.88
67397;BME280;57728;50.448;18.824;2023-09-19T08:28:08;97290.69;;;20.42;72.65
67397;BME280;57728;50.448;18.824;2023-09-19T08:30:13;97375.31;;;20.88;72.69
67397;BME280;57728;50.448;18.824;2023-09-19T08:32:19;97307.91;;;20.39;72.81
67397;BME280;57728;50.448;18.824;2023-09-19T08:34:25;97370.75;;;20.70;73.13
67397;BME280;57728;50.448;18.824;2023-09-19T08:36:27;97381.34;;;20.90;73.30
67397;BME280;57728;50.448;18.824;2023-09-19T08:38:29;97387.88;;;20.94;73.05
67397;BME280;57728;50.448;18.824;2023-09-19T08:40:31;97346.19;;;20.68;72.61
67397;BME280;57728;50.448;18.824;2023-09-19T08:42:50;97365.50;;;20.82;73.02
67397;BME280;57728;50.448;18.824;2023-09-19T08:44:57;97331.25;;;20.55;72.76
67397;BME280;57728;50.448;18.824;2023-09-19T08:47:10;97399.63;;;21.00;72.65
67397;BME280;57728;50.448;18.824;2023-09-19T08:49:33;97358.09;;;20.69;72.73
67397;BME280;57728;50.448;18.824;2023-09-19T08:51:43;97403.53;;;20.99;72.79
67397;BME280;57728;50.448;18.824;2023-09-19T08:54:22;97407.63;;;21.02;72.46
67397;BME280;57728;50.448;18.824;2023-09-19T08:56:32;97327.31;;;20.48;72.55
67397;BME280;57728;50.448;18.824;2023-09-19T08:58:46;97389.31;;;20.92;72.26
67397;BME280;57728;50.448;18.824;2023-09-19T09:00:53;97384.31;;;20.94;72.45
67397;BME280;57728;50.448;18.824;2023-09-19T09:02:57;97393.34;;;21.08;72.02
67397;BME280;57728;50.448;18.824;2023-09-19T09:05:04;97282.88;;;20.44;71.78
67397;BME280;57728;50.448;18.824;2023-09-19T09:07:13;97368.25;;;21.05;72.14
67397;BME280;57728;50.448;18.824;2023-09-19T09:09:15;97321.22;;;20.82;71.94
67397;BME280;57728;50.448;18.824;2023-09-19T09:11:18;97365.47;;;21.05;71.25
67397;BME280;57728;50.448;18.824;2023-09-19T09:13:20;97408.97;;;21.36;70.75
67397;BME280;57728;50.448;18.824;2023-09-19T09:15:23;97352.16;;;21.07;70.71
67397;BME280;57728;50.448;18.824;2023-09-19T09:17:25;97403.44;;;21.36;70.90
67397;BME280;57728;50.448;18.824;2023-09-19T09:19:26;97298.84;;;20.70;70.57
67397;BME280;57728;50.448;18.824;2023-09-19T09:21:27;97336.13;;;20.95;70.34
67397;BME280;57728;50.448;18.824;2023-09-19T09:23:37;97285.56;;;20.58;70.34
67397;BME280;57728;50.448;18.824;2023-09-19T09:25:52;97405.88;;;21.37;69.98
67397;BME280;57728;50.448;18.824;2023-09-19T09:28:25;97407.81;;;21.28;70.11
67397;BME280;57728;50.448;18.824;2023-09-19T09:30:36;97393.41;;;21.17;69.89
67397;BME280;57728;50.448;18.824;2023-09-19T09:32:38;97364.16;;;21.02;69.58
67397;BME280;57728;50.448;18.824;2023-09-19T09:34:40;97405.03;;;21.28;69.59
67397;BME280;57728;50.448;18.824;2023-09-19T09:36:48;97372.03;;;21.09;68.94
67397;BME280;57728;50.448;18.824;2023-09-19T09:38:50;97380.75;;;21.25;68.76
67397;BME280;57728;50.448;18.824;2023-09-19T09:40:53;97312.06;;;20.73;68.56
67397;BME280;57728;50.448;18.824;2023-09-19T09:43:30;97286.66;;;20.71;68.39
67397;BME280;57728;50.448;18.824;2023-09-19T09:45:42;97379.97;;;21.33;67.62
67397;BME280;57728;50.448;18.824;2023-09-19T09:47:49;97412.06;;;21.57;67.52
67397;BME280;57728;50.448;18.824;2023-09-19T09:49:57;97393.25;;;21.45;67.27
67397;BME280;57728;50.448;18.824;2023-09-19T09:52:07;97355.16;;;21.19;67.09
67397;BME280;57728;50.448;18.824;2023-09-19T09:54:18;97435.38;;;21.64;66.79
67397;BME280;57728;50.448;18.824;2023-09-19T09:56:23;97328.50;;;21.01;66.48
67397;BME280;57728;50.448;18.824;2023-09-19T09:58:26;97361.97;;;21.13;66.70
67397;BME280;57728;50.448;18.824;2023-09-19T10:00:30;97326.28;;;20.80;66.22
67397;BME280;57728;50.448;18.824;2023-09-19T10:02:43;97310.44;;;20.72;66.54
67397;BME280;57728;50.448;18.824;2023-09-19T10:04:47;97427.28;;;21.45;65.82
67397;BME280;57728;50.448;18.824;2023-09-19T10:07:30;97415.31;;;21.36;66.17
67397;BME280;57728;50.448;18.824;2023-09-19T10:10:01;97338.34;;;20.84;65.91
67397;BME280;57728;50.448;18.824;2023-09-19T10:12:22;97420.19;;;21.30;65.97
67397;BME280;57728;50.448;18.824;2023-09-19T10:14:30;97406.75;;;21.15;66.11
67397;BME280;57728;50.448;18.824;2023-09-19T10:16:46;97343.78;;;20.75;66.37
67397;BME280;57728;50.448;18.824;2023-09-19T10:18:54;97374.47;;;20.88;66.09
67397;BME280;57728;50.448;18.824;2023-09-19T10:21:01;97421.34;;;21.07;65.82
67397;BME280;57728;50.448;18.824;2023-09-19T10:23:07;97461.53;;;21.27;66.52
67397;BME280;57728;50.448;18.824;2023-09-19T10:25:13;97463.94;;;21.20;66.58
67397;BME280;57728;50.448;18.824;2023-09-19T10:27:15;97464.03;;;21.15;66.81
67397;BME280;57728;50.448;18.824;2023-09-19T10:29:18;97412.19;;;20.84;67.44
67397;BME280;57728;50.448;18.824;2023-09-19T10:31:21;97462.59;;;20.94;67.25
67397;BME280;57728;50.448;18.824;2023-09-19T10:33:26;97281.03;;;19.80;67.39
67397;BME280;57728;50.448;18.824;2023-09-19T10:35:33;97359.59;;;20.24;67.80
67397;BME280;57728;50.448;18.824;2023-09-19T10:37:39;97430.38;;;20.62;67.82
67397;BME280;57728;50.448;18.824;2023-09-19T10:39:46;97405.25;;;20.36;68.55
67397;BME280;57728;50.448;18.824;2023-09-19T10:41:51;97446.91;;;20.53;68.52
67397;BME280;57728;50.448;18.824;2023-09-19T10:43:57;97438.84;;;20.43;68.86
67397;BME280;57728;50.448;18.824;2023-09-19T10:46:02;97387.31;;;19.97;68.92
67397;BME280;57728;50.448;18.824;2023-09-19T10:48:08;97392.28;;;20.08;69.27
67397;BME280;57728;50.448;18.824;2023-09-19T10:50:19;97500.31;;;20.62;69.72
67397;BME280;57728;50.448;18.824;2023-09-19T10:52:27;97467.19;;;20.49;69.88
67397;BME280;57728;50.448;18.824;2023-09-19T10:54:34;97504.03;;;20.72;69.75
67397;BME280;57728;50.448;18.824;2023-09-19T10:56:48;97496.75;;;20.76;69.78
67397;BME280;57728;50.448;18.824;2023-09-19T10:59:05;97394.22;;;20.22;69.76
67397;BME280;57728;50.448;18.824;2023-09-19T11:01:12;97495.41;;;20.87;69.66
67397;BME280;57728;50.448;18.824;2023-09-19T11:05:19;97451.47;;;20.58;70.39